Time;durP1;ratioP1;P1;durP2;ratioP2;P2;SDS_P1;SDS_P2;PMS_P1;PMS_P2;Temp;Humidity;BMP_temperature;BMP_pressure;BME280_temperature;BME280_humidity;BME280_pressure;Samples;Min_cycle;Max_cycle;Signal;HPM_P1;HPM_P2
2023/12/17 00:01:42;;;;;;;16.75;5.75;;;;;;;;;;4970320;28;20397;-67
2023/12/17 00:04:07;;;;;;;19.70;5.33;;;;;;;;;;4974244;28;20061;-67
2023/12/17 00:06:35;;;;;;;19.33;7.67;;;;;;;;;;4972921;28;20752;-67
2023/12/17 00:09:00;;;;;;;27.02;7.03;;;;;;;;;;4971079;28;20274;-67
2023/12/17 00:11:26;;;;;;;21.57;5.77;;;;;;;;;;4972303;28;21500;-67
2023/12/17 00:13:51;;;;;;;16.77;4.10;;;;;;;;;;4972882;28;20278;-67
2023/12/17 00:16:16;;;;;;;19.73;7.20;;;;;;;;;;4973466;28;20080;-67
2023/12/17 00:18:41;;;;;;;19.47;6.70;;;;;;;;;;4976259;28;20728;-67
2023/12/17 00:21:06;;;;;;;25.67;7.00;;;;;;;;;;4975695;28;20285;-67
2023/12/17 00:23:31;;;;;;;23.58;8.25;;;;;;;;;;4973372;28;20245;-67
2023/12/17 00:25:57;;;;;;;21.43;7.60;;;;;;;;;;4973289;28;20041;-67
2023/12/17 00:28:22;;;;;;;23.20;7.00;;;;;;;;;;4973098;28;20254;-66
2023/12/17 00:30:47;;;;;;;19.67;7.70;;;;;;;;;;4973330;28;20349;-67
2023/12/17 00:33:12;;;;;;;18.90;7.35;;;;;;;;;;4971481;28;20250;-67
2023/12/17 00:35:37;;;;;;;25.40;6.97;;;;;;;;;;4969568;28;20035;-67
2023/12/17 00:38:03;;;;;;;24.77;7.27;;;;;;;;;;4972406;28;20285;-67
2023/12/17 00:40:28;;;;;;;25.50;6.97;;;;;;;;;;4972074;28;20293;-67
2023/12/17 00:42:53;;;;;;;17.00;7.75;;;;;;;;;;4973513;28;20092;-67
2023/12/17 00:45:18;;;;;;;26.80;9.03;;;;;;;;;;4973786;28;20481;-67
2023/12/17 00:47:43;;;;;;;19.13;8.33;;;;;;;;;;4970502;28;20282;-66
2023/12/17 00:50:09;;;;;;;27.57;8.33;;;;;;;;;;4972936;28;20683;-66
2023/12/17 00:52:34;;;;;;;30.98;8.48;;;;;;;;;;4971341;28;20273;-66
2023/12/17 00:54:59;;;;;;;20.88;6.90;;;;;;;;;;4971576;28;20048;-66
2023/12/17 00:57:24;;;;;;;19.97;6.97;;;;;;;;;;4972737;28;20155;-66
2023/12/17 00:59:50;;;;;;;27.88;8.45;;;;;;;;;;4973321;28;20266;-66
2023/12/17 01:02:15;;;;;;;20.30;7.40;;;;;;;;;;4976746;28;20023;-66
2023/12/17 01:04:40;;;;;;;23.25;8.77;;;;;;;;;;4968634;28;20351;-66
2023/12/17 01:07:05;;;;;;;17.80;5.90;;;;;;;;;;4972835;28;20025;-67
2023/12/17 01:09:30;;;;;;;32.30;9.03;;;;;;;;;;4971711;28;20250;-66
2023/12/17 01:11:57;;;;;;;21.27;7.77;;;;;;;;;;4973666;28;20260;-66
2023/12/17 01:14:22;;;;;;;18.27;6.63;;;;;;;;;;4968294;28;20270;-66
2023/12/17 01:16:47;;;;;;;24.58;8.65;;;;;;;;;;4973496;28;20022;-66
2023/12/17 01:19:13;;;;;;;24.75;8.65;;;;;;;;;;4974136;28;20374;-66
2023/12/17 01:21:38;;;;;;;25.48;7.63;;;;;;;;;;4971313;28;20023;-66
2023/12/17 01:24:03;;;;;;;21.47;6.63;;;;;;;;;;4976064;28;20015;-66
2023/12/17 01:26:29;;;;;;;22.40;7.10;;;;;;;;;;4973718;28;20810;-67
2023/12/17 01:28:54;;;;;;;18.60;4.90;;;;;;;;;;4971270;28;20631;-67
2023/12/17 01:31:19;;;;;;;20.25;7.40;;;;;;;;;;4971182;28;20573;-66
2023/12/17 01:33:44;;;;;;;25.00;6.90;;;;;;;;;;4974928;28;20576;-66
2023/12/17 01:36:10;;;;;;;27.17;7.03;;;;;;;;;;4972339;28;20275;-66
2023/12/17 01:38:35;;;;;;;24.92;8.13;;;;;;;;;;4975064;28;20033;-66
2023/12/17 01:41:00;;;;;;;24.77;6.97;;;;;;;;;;4976124;28;20068;-67
2023/12/17 01:43:25;;;;;;;19.45;6.70;;;;;;;;;;4974349;28;20029;-66
2023/12/17 01:45:52;;;;;;;19.93;6.73;;;;;;;;;;4973204;28;20027;-66
2023/12/17 01:48:18;;;;;;;24.58;7.13;;;;;;;;;;4972313;28;20262;-66
2023/12/17 01:50:43;;;;;;;24.77;9.30;;;;;;;;;;4975571;28;20155;-66
2023/12/17 01:53:08;;;;;;;22.45;7.43;;;;;;;;;;4972608;28;20068;-66
2023/12/17 01:55:33;;;;;;;20.30;7.18;;;;;;;;;;4977957;28;20456;-66
2023/12/17 01:57:59;;;;;;;8.07;3.55;;;;;;;;;;4969620;28;20481;-66
2023/12/17 02:00:24;;;;;;;16.65;6.43;;;;;;;;;;4974977;28;20026;-66
2023/12/17 02:02:50;;;;;;;11.38;4.95;;;;;;;;;;4973324;28;20430;-66
2023/12/17 02:05:15;;;;;;;8.32;4.22;;;;;;;;;;4970135;28;20045;-66
2023/12/17 02:07:41;;;;;;;17.95;5.63;;;;;;;;;;4972666;28;20019;-67
2023/12/17 02:10:06;;;;;;;17.88;5.40;;;;;;;;;;4971265;28;20466;-66
2023/12/17 02:12:31;;;;;;;16.90;5.32;;;;;;;;;;4975988;28;20034;-66
2023/12/17 02:14:57;;;;;;;9.30;4.55;;;;;;;;;;4970370;28;20629;-67
2023/12/17 02:17:27;;;;;;;21.53;6.10;;;;;;;;;;4972056;28;20026;-66
2023/12/17 02:19:52;;;;;;;19.38;6.20;;;;;;;;;;4976010;28;20312;-66
2023/12/17 02:22:17;;;;;;;15.20;5.45;;;;;;;;;;4973421;28;20019;-66
2023/12/17 02:24:42;;;;;;;21.03;8.27;;;;;;;;;;4973333;28;20046;-66
2023/12/17 02:27:07;;;;;;;8.40;4.67;;;;;;;;;;4972768;28;20285;-66
2023/12/17 02:29:33;;;;;;;14.57;6.13;;;;;;;;;;4973045;28;20748;-66
2023/12/17 02:31:58;;;;;;;8.40;3.70;;;;;;;;;;4970928;28;20266;-66
2023/12/17 02:34:23;;;;;;;15.50;6.53;;;;;;;;;;4976871;28;20250;-66
2023/12/17 02:36:48;;;;;;;14.73;6.93;;;;;;;;;;4971820;28;20023;-67
2023/12/17 02:39:14;;;;;;;17.95;7.22;;;;;;;;;;4971146;28;20274;-66
2023/12/17 02:41:39;;;;;;;18.85;7.78;;;;;;;;;;4970761;28;20025;-66
2023/12/17 02:44:04;;;;;;;18.27;6.80;;;;;;;;;;4969041;28;20637;-66
2023/12/17 02:46:29;;;;;;;17.10;6.93;;;;;;;;;;4971863;28;20258;-67
2023/12/17 02:48:54;;;;;;;15.68;6.18;;;;;;;;;;4973836;28;20445;-66
2023/12/17 02:51:20;;;;;;;18.57;6.17;;;;;;;;;;4972745;28;20041;-66
2023/12/17 02:53:45;;;;;;;21.23;6.80;;;;;;;;;;4973738;28;20265;-66
2023/12/17 02:56:10;;;;;;;11.47;5.83;;;;;;;;;;4978881;28;20298;-66
2023/12/17 02:58:37;;;;;;;13.82;6.70;;;;;;;;;;4972667;28;20324;-66
2023/12/17 03:01:02;;;;;;;18.42;6.40;;;;;;;;;;4977037;28;20030;-66
2023/12/17 03:03:27;;;;;;;14.43;5.90;;;;;;;;;;4977225;28;20022;-66
2023/12/17 03:05:52;;;;;;;12.10;5.70;;;;;;;;;;4977117;28;20023;-66
2023/12/17 03:08:18;;;;;;;13.40;5.87;;;;;;;;;;4977775;28;20981;-67
2023/12/17 03:10:43;;;;;;;11.50;4.72;;;;;;;;;;4977273;28;20262;-66
2023/12/17 03:13:08;;;;;;;14.68;4.38;;;;;;;;;;4976427;28;20112;-66
2023/12/17 03:15:34;;;;;;;12.70;5.20;;;;;;;;;;4974619;28;20102;-66
2023/12/17 03:17:59;;;;;;;9.85;4.22;;;;;;;;;;4974287;28;20745;-66
2023/12/17 03:20:25;;;;;;;11.52;4.68;;;;;;;;;;4980593;28;20022;-66
2023/12/17 03:22:50;;;;;;;11.30;4.97;;;;;;;;;;4973304;28;20034;-66
2023/12/17 03:25:15;;;;;;;6.53;2.13;;;;;;;;;;4980520;28;20355;-66
2023/12/17 03:27:41;;;;;;;16.23;5.63;;;;;;;;;;4974676;28;20257;-66
2023/12/17 03:30:06;;;;;;;13.48;5.13;;;;;;;;;;4975570;28;20310;-66
2023/12/17 03:32:32;;;;;;;12.18;4.85;;;;;;;;;;4974712;28;20072;-66
2023/12/17 03:34:57;;;;;;;14.63;5.00;;;;;;;;;;4980355;28;20046;-67
2023/12/17 03:37:22;;;;;;;6.07;3.38;;;;;;;;;;4984931;28;20293;-68
2023/12/17 03:39:48;;;;;;;11.93;5.57;;;;;;;;;;4973145;28;20113;-68
2023/12/17 03:42:14;;;;;;;15.88;5.70;;;;;;;;;;4979511;28;20254;-68
2023/12/17 03:44:39;;;;;;;10.17;3.10;;;;;;;;;;4971519;28;20107;-68
2023/12/17 03:47:04;;;;;;;18.90;6.57;;;;;;;;;;4974660;28;20281;-68
2023/12/17 03:49:29;;;;;;;15.48;5.50;;;;;;;;;;4980725;28;20027;-68
2023/12/17 03:51:54;;;;;;;16.50;6.65;;;;;;;;;;4974062;28;20022;-68
2023/12/17 03:54:20;;;;;;;20.42;6.78;;;;;;;;;;4980069;28;20493;-68
2023/12/17 03:56:46;;;;;;;25.55;8.05;;;;;;;;;;4979542;28;20023;-68
2023/12/17 03:59:11;;;;;;;15.50;6.25;;;;;;;;;;5005572;28;20158;-68
2023/12/17 04:01:43;;;;;;;24.40;6.83;;;;;;;;;;4975225;28;20093;-68
2023/12/17 04:04:08;;;;;;;21.10;6.78;;;;;;;;;;4984176;28;20259;-68
2023/12/17 04:06:33;;;;;;;15.07;6.43;;;;;;;;;;4979823;28;20042;-68
2023/12/17 04:08:58;;;;;;;18.63;6.03;;;;;;;;;;4973265;28;20258;-68
2023/12/17 04:11:23;;;;;;;28.60;6.90;;;;;;;;;;4976723;28;20266;-68
2023/12/17 04:13:48;;;;;;;16.75;7.03;;;;;;;;;;4974702;28;20384;-68
2023/12/17 04:16:14;;;;;;;16.50;7.30;;;;;;;;;;4975697;28;20033;-68
2023/12/17 04:18:39;;;;;;;24.50;7.75;;;;;;;;;;4970177;28;20029;-68
2023/12/17 04:21:05;;;;;;;21.02;6.97;;;;;;;;;;4978151;28;20050;-68
2023/12/17 04:23:30;;;;;;;19.58;6.75;;;;;;;;;;4977030;28;20023;-68
2023/12/17 04:25:55;;;;;;;15.48;6.30;;;;;;;;;;4974872;28;20019;-68
2023/12/17 04:28:20;;;;;;;21.25;5.80;;;;;;;;;;4975559;28;20097;-68
2023/12/17 04:30:46;;;;;;;22.80;6.43;;;;;;;;;;4986673;28;20034;-68
2023/12/17 04:33:11;;;;;;;20.43;7.47;;;;;;;;;;4975264;28;20254;-68
2023/12/17 04:35:36;;;;;;;18.25;6.25;;;;;;;;;;4973365;28;20781;-68
2023/12/17 04:38:01;;;;;;;11.47;4.37;;;;;;;;;;4981743;28;20048;-68
2023/12/17 04:40:26;;;;;;;19.65;5.88;;;;;;;;;;4975316;28;20277;-68
2023/12/17 04:42:51;;;;;;;16.00;5.23;;;;;;;;;;4981206;28;20079;-68
2023/12/17 04:45:17;;;;;;;10.43;4.60;;;;;;;;;;4972438;28;20313;-68
2023/12/17 04:47:42;;;;;;;13.43;5.95;;;;;;;;;;4971271;28;20308;-68
2023/12/17 04:50:07;;;;;;;10.82;4.78;;;;;;;;;;4976167;28;20077;-68
2023/12/17 04:52:32;;;;;;;16.55;5.80;;;;;;;;;;4978436;28;20027;-68
2023/12/17 04:54:57;;;;;;;16.17;5.63;;;;;;;;;;4968458;28;20030;-68
2023/12/17 04:57:23;;;;;;;20.30;5.67;;;;;;;;;;4979599;28;20281;-68
2023/12/17 04:59:48;;;;;;;10.40;4.27;;;;;;;;;;4974834;28;20343;-68
2023/12/17 05:02:13;;;;;;;8.87;4.10;;;;;;;;;;4987157;28;20262;-68
2023/12/17 05:04:38;;;;;;;14.87;4.73;;;;;;;;;;4981627;28;20404;-68
2023/12/17 05:07:03;;;;;;;7.57;3.67;;;;;;;;;;4973898;28;20267;-68
2023/12/17 05:09:28;;;;;;;10.23;3.97;;;;;;;;;;4979139;28;20928;-68
2023/12/17 05:11:54;;;;;;;7.20;3.13;;;;;;;;;;4977437;28;20275;-68
2023/12/17 05:14:19;;;;;;;11.32;5.00;;;;;;;;;;4981938;28;20279;-68
2023/12/17 05:16:44;;;;;;;17.83;6.05;;;;;;;;;;4987827;28;20366;-68
2023/12/17 05:19:09;;;;;;;14.40;5.28;;;;;;;;;;4974311;28;20058;-68
2023/12/17 05:21:35;;;;;;;17.55;5.28;;;;;;;;;;4976263;28;20109;-68
2023/12/17 05:24:00;;;;;;;12.43;3.55;;;;;;;;;;4976745;28;20022;-68
2023/12/17 05:26:25;;;;;;;13.63;6.37;;;;;;;;;;4975537;28;20010;-68
2023/12/17 05:28:50;;;;;;;13.43;4.90;;;;;;;;;;4972248;28;20810;-68
2023/12/17 05:31:15;;;;;;;13.60;4.85;;;;;;;;;;4982124;28;20369;-68
2023/12/17 05:33:41;;;;;;;17.47;5.53;;;;;;;;;;4991181;28;20027;-68
2023/12/17 05:36:06;;;;;;;19.58;6.47;;;;;;;;;;4974677;28;20262;-68
2023/12/17 05:38:31;;;;;;;17.30;7.10;;;;;;;;;;4980914;28;20068;-68
2023/12/17 05:40:57;;;;;;;14.07;6.77;;;;;;;;;;4979437;28;20030;-68
2023/12/17 05:43:22;;;;;;;17.55;6.15;;;;;;;;;;4979308;28;20336;-68
2023/12/17 05:45:47;;;;;;;12.30;5.57;;;;;;;;;;4982666;28;20079;-68
2023/12/17 05:48:14;;;;;;;20.17;4.03;;;;;;;;;;4975420;28;20076;-68
2023/12/17 05:50:40;;;;;;;18.33;6.50;;;;;;;;;;4976363;28;20249;-68
2023/12/17 05:53:05;;;;;;;10.40;4.85;;;;;;;;;;4973956;28;20038;-68
2023/12/17 05:55:30;;;;;;;15.50;4.95;;;;;;;;;;4988547;28;20092;-68
2023/12/17 05:57:55;;;;;;;23.17;4.70;;;;;;;;;;4977691;28;20095;-68
2023/12/17 06:00:20;;;;;;;17.45;6.72;;;;;;;;;;4979430;28;20351;-68
2023/12/17 06:02:46;;;;;;;8.57;3.75;;;;;;;;;;4987502;28;20020;-68
2023/12/17 06:05:11;;;;;;;13.97;3.80;;;;;;;;;;4974231;28;20019;-68
2023/12/17 06:07:36;;;;;;;5.13;3.03;;;;;;;;;;4980940;28;20257;-68
2023/12/17 06:10:01;;;;;;;18.30;6.67;;;;;;;;;;4980109;28;20026;-68
2023/12/17 06:12:26;;;;;;;15.52;6.72;;;;;;;;;;4984642;28;20340;-68
2023/12/17 06:14:52;;;;;;;12.85;5.45;;;;;;;;;;4976556;28;20389;-68
2023/12/17 06:17:17;;;;;;;14.43;5.77;;;;;;;;;;4986650;28;20560;-68
2023/12/17 06:19:44;;;;;;;18.08;5.97;;;;;;;;;;4978143;28;20364;-68
2023/12/17 06:22:11;;;;;;;9.15;3.80;;;;;;;;;;4982391;28;20098;-68
2023/12/17 06:24:36;;;;;;;12.10;6.18;;;;;;;;;;4985022;28;20487;-68
2023/12/17 06:27:02;;;;;;;13.60;6.77;;;;;;;;;;4977746;28;20030;-68
2023/12/17 06:29:27;;;;;;;20.02;6.75;;;;;;;;;;4974411;28;20340;-68
2023/12/17 06:31:52;;;;;;;16.33;5.38;;;;;;;;;;4972923;28;20023;-68
2023/12/17 06:34:17;;;;;;;22.17;8.53;;;;;;;;;;4969969;28;20122;-68
2023/12/17 06:36:42;;;;;;;10.53;5.07;;;;;;;;;;4973185;28;20288;-68
2023/12/17 06:39:09;;;;;;;11.53;5.23;;;;;;;;;;4984047;28;20312;-68
2023/12/17 06:41:35;;;;;;;15.13;6.15;;;;;;;;;;4977478;28;20280;-68
2023/12/17 06:44:00;;;;;;;6.35;3.88;;;;;;;;;;4981562;28;20027;-68
2023/12/17 06:46:26;;;;;;;13.50;6.30;;;;;;;;;;4984441;28;20102;-68
2023/12/17 06:48:51;;;;;;;15.35;6.85;;;;;;;;;;4973668;28;20761;-68
2023/12/17 06:51:16;;;;;;;18.42;6.90;;;;;;;;;;4978663;28;20027;-68
2023/12/17 06:53:42;;;;;;;15.63;6.00;;;;;;;;;;4981754;28;20098;-68
2023/12/17 06:56:07;;;;;;;20.80;7.23;;;;;;;;;;4978781;28;20577;-68
2023/12/17 06:58:33;;;;;;;16.88;6.13;;;;;;;;;;4984727;28;20262;-68
2023/12/17 07:00:58;;;;;;;18.52;7.53;;;;;;;;;;4972456;28;20035;-68
2023/12/17 07:03:24;;;;;;;16.98;6.43;;;;;;;;;;4983924;28;20073;-68
2023/12/17 07:05:49;;;;;;;19.67;3.80;;;;;;;;;;4975623;28;20478;-68
2023/12/17 07:08:14;;;;;;;17.60;7.65;;;;;;;;;;4975721;28;20030;-68
2023/12/17 07:10:39;;;;;;;20.90;7.10;;;;;;;;;;4977924;28;20026;-68
2023/12/17 07:13:05;;;;;;;16.33;7.77;;;;;;;;;;4981880;28;20257;-68
2023/12/17 07:15:30;;;;;;;20.52;7.50;;;;;;;;;;4972859;28;20270;-68
2023/12/17 07:17:55;;;;;;;28.30;8.40;;;;;;;;;;4985192;28;20037;-68
2023/12/17 07:20:20;;;;;;;15.30;5.65;;;;;;;;;;4974154;28;20282;-68
2023/12/17 07:22:45;;;;;;;15.88;6.97;;;;;;;;;;4969762;28;20038;-68
2023/12/17 07:25:11;;;;;;;18.70;6.78;;;;;;;;;;4975923;28;20491;-68
2023/12/17 07:27:36;;;;;;;16.30;6.53;;;;;;;;;;4970219;28;20103;-68
2023/12/17 07:30:01;;;;;;;14.93;6.87;;;;;;;;;;4976165;28;20053;-68
2023/12/17 07:32:26;;;;;;;17.80;6.20;;;;;;;;;;4976278;28;20294;-68
2023/12/17 07:34:51;;;;;;;29.47;7.77;;;;;;;;;;4979911;28;20281;-68
2023/12/17 07:37:16;;;;;;;20.30;7.80;;;;;;;;;;4976384;28;20262;-68
2023/12/17 07:39:42;;;;;;;21.57;7.17;;;;;;;;;;4975785;28;20296;-68
2023/12/17 07:42:07;;;;;;;13.70;5.65;;;;;;;;;;4987737;28;20292;-68
2023/12/17 07:44:32;;;;;;;17.00;6.35;;;;;;;;;;4970478;28;20015;-68
2023/12/17 07:46:57;;;;;;;17.90;7.83;;;;;;;;;;4981179;28;20048;-68
2023/12/17 07:49:23;;;;;;;22.73;7.25;;;;;;;;;;4970535;28;20262;-68
2023/12/17 07:51:49;;;;;;;16.13;5.90;;;;;;;;;;4976218;28;20529;-68
2023/12/17 07:54:14;;;;;;;16.65;5.38;;;;;;;;;;4976374;28;20027;-68
2023/12/17 07:56:39;;;;;;;16.58;6.45;;;;;;;;;;4969926;28;20029;-68
2023/12/17 07:59:05;;;;;;;18.63;6.60;;;;;;;;;;4972031;28;20099;-68
2023/12/17 08:01:30;;;;;;;12.07;4.73;;;;;;;;;;4971024;28;20856;-67
2023/12/17 08:03:55;;;;;;;12.88;6.35;;;;;;;;;;4978088;28;20285;-67
2023/12/17 08:06:21;;;;;;;15.40;6.57;;;;;;;;;;4972554;28;20014;-67
2023/12/17 08:08:46;;;;;;;31.08;8.55;;;;;;;;;;4971453;28;20259;-67
2023/12/17 08:11:12;;;;;;;19.20;8.73;;;;;;;;;;4978281;28;20526;-67
2023/12/17 08:13:37;;;;;;;32.97;11.65;;;;;;;;;;4973197;28;20262;-67
2023/12/17 08:16:02;;;;;;;28.63;11.02;;;;;;;;;;4974799;28;20076;-67
2023/12/17 08:18:28;;;;;;;19.35;7.90;;;;;;;;;;4976602;28;20117;-67
2023/12/17 08:20:53;;;;;;;22.15;7.07;;;;;;;;;;4972759;28;20058;-67
2023/12/17 08:23:18;;;;;;;60.13;20.98;;;;;;;;;;4976829;28;20060;-67
2023/12/17 08:25:43;;;;;;;41.70;15.33;;;;;;;;;;4975414;28;20027;-67
2023/12/17 08:28:08;;;;;;;18.63;6.17;;;;;;;;;;4972810;28;20309;-67
2023/12/17 08:30:35;;;;;;;9.23;3.63;;;;;;;;;;4976563;28;20626;-67
2023/12/17 08:33:01;;;;;;;6.53;2.55;;;;;;;;;;4982572;28;20334;-67
2023/12/17 08:35:26;;;;;;;16.17;5.72;;;;;;;;;;4972757;28;20556;-67
2023/12/17 08:37:51;;;;;;;7.40;3.55;;;;;;;;;;4977748;28;20161;-67
2023/12/17 08:40:17;;;;;;;15.05;6.00;;;;;;;;;;4973421;28;20031;-67
2023/12/17 08:42:42;;;;;;;11.57;5.55;;;;;;;;;;4970454;28;20031;-67
2023/12/17 08:45:08;;;;;;;17.03;6.40;;;;;;;;;;4997584;28;20022;-67
2023/12/17 08:47:33;;;;;;;11.30;5.18;;;;;;;;;;4979678;28;20769;-67
2023/12/17 08:50:01;;;;;;;12.10;5.73;;;;;;;;;;4974742;28;20035;-67
2023/12/17 08:52:26;;;;;;;18.08;6.15;;;;;;;;;;4968424;28;20656;-67
2023/12/17 08:54:51;;;;;;;14.40;5.40;;;;;;;;;;4979676;28;20018;-67
2023/12/17 08:57:17;;;;;;;10.73;4.75;;;;;;;;;;4971461;28;20015;-67
2023/12/17 08:59:43;;;;;;;9.27;3.20;;;;;;;;;;4970375;28;20026;-67
2023/12/17 09:02:08;;;;;;;4.57;2.05;;;;;;;;;;4981546;28;20638;-67
2023/12/17 09:04:34;;;;;;;7.30;3.13;;;;;;;;;;4976662;28;20098;-67
2023/12/17 09:06:59;;;;;;;14.07;4.88;;;;;;;;;;4973722;28;20282;-67
2023/12/17 09:09:24;;;;;;;8.80;3.90;;;;;;;;;;4978346;28;20018;-67
2023/12/17 09:11:49;;;;;;;8.60;4.57;;;;;;;;;;4968605;28;20281;-67
2023/12/17 09:14:14;;;;;;;3.50;1.90;;;;;;;;;;4973971;28;20341;-67
2023/12/17 09:16:40;;;;;;;9.63;4.15;;;;;;;;;;4974378;28;20262;-67
2023/12/17 09:19:05;;;;;;;5.00;1.63;;;;;;;;;;4985270;28;20477;-67
2023/12/17 09:21:30;;;;;;;6.13;3.43;;;;;;;;;;4975840;28;20377;-67
2023/12/17 09:23:55;;;;;;;2.95;1.45;;;;;;;;;;4998902;28;20270;-67
2023/12/17 09:26:20;;;;;;;12.90;4.38;;;;;;;;;;4978136;28;20022;-67
2023/12/17 09:28:47;;;;;;;13.53;4.80;;;;;;;;;;4972318;28;20052;-67
2023/12/17 09:31:12;;;;;;;3.70;2.40;;;;;;;;;;4987058;28;20254;-68
2023/12/17 09:33:38;;;;;;;8.70;3.37;;;;;;;;;;4983845;28;20019;-68
2023/12/17 09:36:04;;;;;;;5.95;2.03;;;;;;;;;;4976718;28;20788;-68
2023/12/17 09:38:29;;;;;;;11.23;3.78;;;;;;;;;;4976146;28;20034;-68
2023/12/17 09:40:54;;;;;;;9.90;3.87;;;;;;;;;;4976879;28;20030;-66
2023/12/17 09:43:24;;;;;;;7.47;4.07;;;;;;;;;;4977473;28;20775;-66
2023/12/17 09:45:49;;;;;;;;;;;;;;;;;;4965928;28;20023;-66
2023/12/17 09:48:14;;;;;;;12.98;5.03;;;;;;;;;;4975136;28;19906;-66
2023/12/17 09:50:40;;;;;;;12.17;4.57;;;;;;;;;;4977349;28;20027;-66
2023/12/17 09:53:05;;;;;;;9.45;4.40;;;;;;;;;;4979561;28;20322;-66
2023/12/17 09:55:30;;;;;;;9.88;4.63;;;;;;;;;;4975102;28;20034;-66
2023/12/17 09:58:00;;;;;;;12.77;5.82;;;;;;;;;;4975735;28;20035;-67
2023/12/17 10:00:25;;;;;;;;;;;;;;;;;;4975297;28;20026;-66
2023/12/17 10:03:00;;;;;;;9.63;4.45;;;;;;;;;;4976150;28;19910;-66
2023/12/17 10:05:25;;;;;;;8.40;3.75;;;;;;;;;;4967409;28;20533;-66
2023/12/17 10:07:50;;;;;;;10.18;4.28;;;;;;;;;;4966097;28;20126;-66
2023/12/17 10:10:17;;;;;;;14.53;6.07;;;;;;;;;;4969787;28;20114;-66
2023/12/17 10:12:42;;;;;;;12.68;5.57;;;;;;;;;;4981374;28;20801;-66
2023/12/17 10:15:09;;;;;;;13.23;5.60;;;;;;;;;;4973730;28;20014;-66
2023/12/17 10:17:36;;;;;;;10.35;4.80;;;;;;;;;;4973739;28;20045;-68
2023/12/17 10:20:01;;;;;;;11.15;5.00;;;;;;;;;;4970200;28;20050;-68
2023/12/17 10:22:26;;;;;;;9.25;4.82;;;;;;;;;;4982139;28;20046;-66
2023/12/17 10:24:52;;;;;;;25.30;3.67;;;;;;;;;;4998044;28;20088;-68
2023/12/17 10:27:18;;;;;;;6.60;3.93;;;;;;;;;;4980732;28;21755;-68
2023/12/17 10:29:45;;;;;;;10.27;4.65;;;;;;;;;;4975247;28;20251;-68
2023/12/17 10:32:11;;;;;;;3.60;2.15;;;;;;;;;;4983330;28;20026;-67
2023/12/17 10:34:37;;;;;;;11.65;4.82;;;;;;;;;;4982134;28;20094;-68
2023/12/17 10:37:03;;;;;;;11.07;5.75;;;;;;;;;;4976843;28;20072;-68
2023/12/17 10:39:28;;;;;;;5.63;3.13;;;;;;;;;;4977039;28;20030;-66
2023/12/17 10:41:54;;;;;;;11.05;5.93;;;;;;;;;;4972844;28;20015;-66
2023/12/17 10:44:19;;;;;;;5.72;2.28;;;;;;;;;;4975676;28;20271;-67
2023/12/17 10:46:45;;;;;;;6.70;3.78;;;;;;;;;;4979295;28;20625;-66
2023/12/17 10:49:13;;;;;;;13.40;5.38;;;;;;;;;;4979296;28;20023;-66
2023/12/17 10:51:42;;;;;;;10.23;5.05;;;;;;;;;;4974989;28;20382;-66
2023/12/17 10:54:08;;;;;;;9.77;4.78;;;;;;;;;;4969849;28;20054;-66
2023/12/17 10:56:38;;;;;;;7.20;4.00;;;;;;;;;;4979342;28;20107;-66
2023/12/17 10:59:05;;;;;;;10.98;4.03;;;;;;;;;;4973992;28;20473;-67
2023/12/17 11:01:31;;;;;;;11.80;5.57;;;;;;;;;;4967681;28;20440;-66
2023/12/17 11:03:57;;;;;;;9.25;5.20;;;;;;;;;;4977749;28;20473;-67
2023/12/17 11:06:22;;;;;;;9.93;5.25;;;;;;;;;;4980103;28;20041;-68
2023/12/17 11:08:47;;;;;;;4.78;2.40;;;;;;;;;;4982367;28;20404;-68
2023/12/17 11:11:12;;;;;;;7.28;3.15;;;;;;;;;;4975554;28;20019;-68
2023/12/17 11:13:38;;;;;;;11.63;6.73;;;;;;;;;;4974156;28;20019;-68
2023/12/17 11:16:21;;;;;;;7.50;4.25;;;;;;;;;;4975091;28;21042;-68
2023/12/17 11:18:46;;;;;;;5.53;3.55;;;;;;;;;;4983557;28;20802;-69
2023/12/17 11:21:12;;;;;;;8.47;5.33;;;;;;;;;;4994802;28;20044;-69
2023/12/17 11:23:38;;;;;;;8.15;4.40;;;;;;;;;;4979583;28;20254;-69
2023/12/17 11:26:04;;;;;;;8.55;4.03;;;;;;;;;;4984378;28;20496;-68
2023/12/17 11:28:30;;;;;;;8.35;4.65;;;;;;;;;;4978400;28;20015;-68
2023/12/17 11:30:55;;;;;;;9.27;5.35;;;;;;;;;;4977259;28;20547;-68
2023/12/17 11:33:21;;;;;;;8.93;4.55;;;;;;;;;;4975460;28;20098;-68
2023/12/17 11:35:46;;;;;;;9.38;5.50;;;;;;;;;;4985888;28;20185;-69
2023/12/17 11:38:12;;;;;;;7.03;4.45;;;;;;;;;;4983333;28;20497;-68
2023/12/17 11:40:39;;;;;;;6.78;2.10;;;;;;;;;;4984739;28;20018;-68
2023/12/17 11:43:05;;;;;;;9.05;5.10;;;;;;;;;;4988853;28;20079;-68
2023/12/17 11:45:34;;;;;;;9.27;5.20;;;;;;;;;;4982400;28;20395;-68
2023/12/17 11:48:05;;;;;;;8.07;5.15;;;;;;;;;;5012830;28;20016;-67
2023/12/17 11:50:38;;;;;;;10.98;5.97;;;;;;;;;;4990205;28;20768;-68
2023/12/17 11:53:04;;;;;;;10.65;6.13;;;;;;;;;;5015150;28;20428;-68
2023/12/17 11:55:29;;;;;;;7.43;4.82;;;;;;;;;;5002618;28;20021;-68
2023/12/17 11:58:00;;;;;;;14.77;7.07;;;;;;;;;;4996882;28;20508;-68
2023/12/17 12:00:25;;;;;;;12.15;6.30;;;;;;;;;;5018627;28;20278;-68
2023/12/17 12:02:50;;;;;;;13.17;7.47;;;;;;;;;;4999598;28;20054;-68
2023/12/17 12:05:17;;;;;;;10.30;6.43;;;;;;;;;;4989009;28;20250;-68
2023/12/17 12:07:43;;;;;;;15.23;5.90;;;;;;;;;;4979149;28;20258;-67
2023/12/17 12:10:08;;;;;;;7.10;5.43;;;;;;;;;;4985600;28;20496;-68
2023/12/17 12:12:33;;;;;;;9.27;5.75;;;;;;;;;;4998256;28;20334;-68
2023/12/17 12:14:59;;;;;;;23.45;10.65;;;;;;;;;;5000910;28;20027;-68
2023/12/17 12:17:40;;;;;;;10.00;6.05;;;;;;;;;;5005601;28;20019;-68
2023/12/17 12:20:09;;;;;;;13.75;7.63;;;;;;;;;;4979394;28;20543;-68
2023/12/17 12:22:35;;;;;;;12.75;6.35;;;;;;;;;;4980285;28;20056;-68
2023/12/17 12:25:00;;;;;;;12.85;5.75;;;;;;;;;;4977793;28;20038;-68
2023/12/17 12:27:26;;;;;;;10.75;5.95;;;;;;;;;;4977556;28;20028;-68
2023/12/17 12:29:51;;;;;;;6.45;2.83;;;;;;;;;;4994881;28;20030;-68
2023/12/17 12:32:29;;;;;;;4.70;2.97;;;;;;;;;;4986760;28;20091;-68
2023/12/17 12:34:55;;;;;;;9.35;5.35;;;;;;;;;;5026042;28;20024;-68
2023/12/17 12:37:37;;;;;;;7.15;3.63;;;;;;;;;;4986458;28;20474;-68
2023/12/17 12:40:03;;;;;;;7.93;4.95;;;;;;;;;;4976202;28;20486;-68
2023/12/17 12:42:29;;;;;;;8.95;5.22;;;;;;;;;;4995346;28;20064;-68
2023/12/17 12:44:54;;;;;;;9.50;5.32;;;;;;;;;;4992657;28;20107;-68
2023/12/17 12:47:20;;;;;;;10.05;5.10;;;;;;;;;;4976583;28;20432;-68
2023/12/17 12:49:45;;;;;;;7.35;4.78;;;;;;;;;;4979862;28;20022;-68
2023/12/17 12:52:10;;;;;;;10.35;5.60;;;;;;;;;;4978204;28;20045;-68
2023/12/17 12:54:35;;;;;;;8.73;4.13;;;;;;;;;;4975010;28;20023;-68
2023/12/17 12:57:01;;;;;;;11.83;5.40;;;;;;;;;;4977812;28;20262;-68
2023/12/17 12:59:26;;;;;;;8.95;4.85;;;;;;;;;;4975733;28;20372;-68
2023/12/17 13:01:54;;;;;;;8.50;4.80;;;;;;;;;;4984989;28;20393;-68
2023/12/17 13:04:19;;;;;;;11.00;5.07;;;;;;;;;;4982896;28;20265;-68
2023/12/17 13:06:44;;;;;;;8.20;5.10;;;;;;;;;;4977882;28;20018;-68
2023/12/17 13:09:11;;;;;;;7.03;4.57;;;;;;;;;;4978652;28;20045;-68
2023/12/17 13:11:36;;;;;;;6.32;3.20;;;;;;;;;;4993105;28;20293;-68
2023/12/17 13:14:03;;;;;;;4.97;2.60;;;;;;;;;;4976406;28;20050;-68
2023/12/17 13:16:28;;;;;;;12.27;4.25;;;;;;;;;;4976910;28;20257;-68
2023/12/17 13:18:54;;;;;;;8.00;4.00;;;;;;;;;;4973112;28;20048;-68
2023/12/17 13:21:19;;;;;;;8.50;4.13;;;;;;;;;;4976031;28;20302;-68
2023/12/17 13:23:45;;;;;;;7.70;4.50;;;;;;;;;;4965488;28;20023;-68
2023/12/17 13:26:10;;;;;;;5.65;3.70;;;;;;;;;;4972396;28;20250;-68
2023/12/17 13:28:36;;;;;;;7.83;3.87;;;;;;;;;;4979305;28;20500;-68
2023/12/17 13:31:03;;;;;;;4.93;2.53;;;;;;;;;;4976577;28;20270;-67
2023/12/17 13:33:28;;;;;;;1.63;1.15;;;;;;;;;;4979898;28;20026;-67
2023/12/17 13:35:53;;;;;;;3.63;2.23;;;;;;;;;;4968971;28;20504;-67
2023/12/17 13:38:19;;;;;;;9.90;3.07;;;;;;;;;;4972406;28;20330;-67
2023/12/17 13:40:44;;;;;;;6.90;2.47;;;;;;;;;;4972070;28;20282;-67
2023/12/17 13:43:09;;;;;;;4.72;2.45;;;;;;;;;;4978257;28;20315;-67
2023/12/17 13:45:35;;;;;;;5.50;2.38;;;;;;;;;;4973785;28;20523;-67
2023/12/17 13:48:00;;;;;;;7.73;2.37;;;;;;;;;;4973556;28;20027;-67
2023/12/17 13:50:25;;;;;;;8.00;3.50;;;;;;;;;;4980159;28;20287;-67
2023/12/17 13:52:50;;;;;;;5.20;2.10;;;;;;;;;;4976598;28;20258;-67
2023/12/17 13:55:15;;;;;;;5.18;2.63;;;;;;;;;;4977880;28;20355;-67
2023/12/17 13:57:41;;;;;;;7.57;3.30;;;;;;;;;;4978574;28;20068;-67
2023/12/17 14:00:06;;;;;;;11.73;3.20;;;;;;;;;;4976244;28;20104;-66
2023/12/17 14:02:31;;;;;;;8.75;3.53;;;;;;;;;;4964346;28;20290;-66
2023/12/17 14:04:57;;;;;;;3.73;2.47;;;;;;;;;;4967473;28;20058;-67
2023/12/17 14:07:22;;;;;;;1.92;0.85;;;;;;;;;;4974774;28;20341;-67
2023/12/17 14:09:48;;;;;;;3.33;1.70;;;;;;;;;;4977226;28;20101;-67
2023/12/17 14:12:13;;;;;;;1.73;1.13;;;;;;;;;;4979238;28;20105;-67
2023/12/17 14:14:40;;;;;;;2.10;1.23;;;;;;;;;;4978617;28;20752;-67
2023/12/17 14:17:06;;;;;;;2.83;1.63;;;;;;;;;;4973789;28;20603;-67
2023/12/17 14:19:34;;;;;;;4.00;2.00;;;;;;;;;;4994671;28;20514;-66
2023/12/17 14:21:59;;;;;;;3.00;1.58;;;;;;;;;;4972940;28;20060;-67
2023/12/17 14:24:25;;;;;;;9.17;2.50;;;;;;;;;;4974392;28;20485;-67